createdAt,value
2023-08-14T00:00:49.781Z,101030.00
2023-08-14T00:03:35.962Z,101027.19
2023-08-14T00:06:04.472Z,101023.75
2023-08-14T00:08:33.249Z,101023.41
2023-08-14T00:11:01.607Z,101018.47
2023-08-14T00:13:30.446Z,101029.38
2023-08-14T00:15:58.805Z,101029.50
2023-08-14T00:18:27.515Z,101030.97
2023-08-14T00:20:55.886Z,101025.59
2023-08-14T00:23:24.506Z,101023.91
2023-08-14T00:25:52.845Z,101021.44
2023-08-14T00:28:21.478Z,101013.09
2023-08-14T00:30:49.834Z,101012.84
2023-08-14T00:33:18.572Z,101009.28
2023-08-14T00:35:46.845Z,101007.56
2023-08-14T00:38:15.617Z,101006.59
2023-08-14T00:40:44.443Z,101013.00
2023-08-14T00:43:13.662Z,101007.19
2023-08-14T00:45:46.202Z,101010.72
2023-08-14T00:48:16.331Z,101009.53
2023-08-14T00:50:44.927Z,101009.44
2023-08-14T00:53:15.712Z,101019.72
2023-08-14T00:55:44.224Z,101018.66
2023-08-14T00:58:13.512Z,101027.00
2023-08-14T01:00:43.635Z,101036.94
2023-08-14T01:03:12.876Z,101027.50
2023-08-14T01:05:41.453Z,101021.09
2023-08-14T01:08:10.212Z,101032.41
2023-08-14T01:10:57.332Z,101025.53
2023-08-14T01:13:42.796Z,101024.25
2023-08-14T01:16:12.716Z,101016.53
2023-08-14T01:18:44.105Z,101025.25
2023-08-14T01:21:18.392Z,101020.19
2023-08-14T01:24:24.398Z,101017.38
2023-08-14T01:26:53.261Z,101019.34
2023-08-14T01:29:21.940Z,101014.91
2023-08-14T01:31:50.208Z,101017.13
2023-08-14T01:34:18.903Z,101020.78
2023-08-14T01:37:01.209Z,101017.16
2023-08-14T01:39:37.643Z,101015.69
2023-08-14T01:42:13.711Z,101010.28
2023-08-14T01:44:44.244Z,101010.53
2023-08-14T01:47:14.672Z,101010.16
2023-08-14T01:49:44.147Z,101015.44
2023-08-14T01:52:12.565Z,101011.25
2023-08-14T01:54:41.398Z,101001.31
2023-08-14T01:57:09.753Z,100999.97
2023-08-14T01:59:46.572Z,101004.63
2023-08-14T02:02:15.600Z,101000.44
2023-08-14T02:04:45.491Z,100997.00
2023-08-14T02:07:13.890Z,100993.78
2023-08-14T02:09:42.803Z,100993.56
2023-08-14T02:12:11.101Z,100986.84
2023-08-14T02:14:39.834Z,100993.09
2023-08-14T02:17:08.310Z,100985.69
2023-08-14T02:19:37.123Z,100987.94
2023-08-14T02:22:06.318Z,100990.34
2023-08-14T02:24:34.956Z,100988.38
2023-08-14T02:27:03.291Z,100993.25
2023-08-14T02:29:32.140Z,100988.50
2023-08-14T02:32:00.456Z,100988.09
2023-08-14T02:34:49.771Z,101001.81
2023-08-14T02:37:19.375Z,100995.53
2023-08-14T02:39:49.788Z,100994.66
2023-08-14T02:42:19.874Z,100992.47
2023-08-14T02:44:49.449Z,100998.09
2023-08-14T02:47:19.076Z,100999.09
2023-08-14T02:49:47.812Z,100986.06
2023-08-14T02:52:16.446Z,100988.50
2023-08-14T02:54:45.632Z,100987.28
2023-08-14T02:57:14.068Z,100993.41
2023-08-14T02:59:42.713Z,100989.13
2023-08-14T03:02:11.012Z,100998.53
2023-08-14T03:04:39.673Z,100997.44
2023-08-14T03:07:07.958Z,101001.91
2023-08-14T03:09:37.061Z,100998.25
2023-08-14T03:12:05.653Z,101005.47
2023-08-14T03:14:34.420Z,100999.22
2023-08-14T03:17:02.761Z,101007.50
2023-08-14T03:19:31.389Z,100999.91
2023-08-14T03:21:59.673Z,101005.03
2023-08-14T03:24:28.422Z,100997.16
2023-08-14T03:26:56.807Z,101001.69
2023-08-14T03:29:25.956Z,101004.38
2023-08-14T03:31:54.659Z,101001.38
2023-08-14T03:34:23.376Z,101001.91
2023-08-14T03:36:51.572Z,101001.00
2023-08-14T03:39:22.163Z,100999.59
2023-08-14T03:41:50.715Z,101000.06
2023-08-14T03:44:19.792Z,100999.28
2023-08-14T03:46:48.120Z,100997.03
2023-08-14T03:49:17.137Z,100998.22
2023-08-14T03:51:45.556Z,100996.50
2023-08-14T03:54:14.475Z,101010.28
2023-08-14T03:56:42.766Z,101000.09
2023-08-14T03:59:11.350Z,101010.06
2023-08-14T04:01:44.589Z,101019.25
2023-08-14T04:04:13.299Z,101021.38
2023-08-14T04:06:41.889Z,101028.59
2023-08-14T04:09:10.684Z,101019.66
2023-08-14T04:11:38.855Z,101020.97
2023-08-14T04:14:07.744Z,101019.56
2023-08-14T04:16:45.444Z,101023.19
2023-08-14T04:19:16.567Z,101020.47
2023-08-14T04:21:45.092Z,101015.38
2023-08-14T04:24:14.114Z,101025.91
2023-08-14T04:26:42.541Z,101025.88
2023-08-14T04:29:11.648Z,101033.94
2023-08-14T04:31:41.837Z,101028.44
2023-08-14T04:34:11.983Z,101034.38
2023-08-14T04:36:42.224Z,101033.34
2023-08-14T04:39:11.207Z,101027.69
2023-08-14T04:41:39.995Z,101024.22
2023-08-14T04:44:08.605Z,101016.66
2023-08-14T04:46:53.420Z,101019.50
2023-08-14T04:49:28.164Z,101012.81
2023-08-14T04:51:56.479Z,101014.13
2023-08-14T04:54:28.474Z,101020.97
2023-08-14T04:56:56.951Z,101015.09
2023-08-14T04:59:26.782Z,101024.16
2023-08-14T05:01:55.667Z,101021.44
2023-08-14T05:04:25.972Z,101019.25
2023-08-14T05:06:54.694Z,101022.41
2023-08-14T05:09:27.288Z,101018.28
2023-08-14T05:12:01.020Z,101021.88
2023-08-14T05:14:29.723Z,101012.06
2023-08-14T05:16:59.076Z,101017.34
2023-08-14T05:19:27.756Z,101019.69
2023-08-14T05:21:56.021Z,101018.31
2023-08-14T05:24:24.882Z,101020.13
2023-08-14T05:26:53.074Z,101024.91
2023-08-14T05:29:21.649Z,101025.88
2023-08-14T05:31:49.851Z,101027.44
2023-08-14T05:34:18.941Z,101022.88
2023-08-14T05:36:47.158Z,101022.03
2023-08-14T05:39:15.823Z,101023.16
2023-08-14T05:41:43.994Z,101023.25
2023-08-14T05:44:12.572Z,101027.19
2023-08-14T05:46:46.534Z,101021.53
2023-08-14T05:49:17.521Z,101027.78
2023-08-14T05:51:46.178Z,101038.84
2023-08-14T05:54:14.742Z,101035.75
2023-08-14T05:56:44.395Z,101039.78
2023-08-14T05:59:13.020Z,101035.84
2023-08-14T06:01:41.284Z,101039.88
2023-08-14T06:04:10.074Z,101035.88
2023-08-14T06:06:38.318Z,101043.97
2023-08-14T06:09:07.927Z,101047.78
2023-08-14T06:11:36.923Z,101038.81
2023-08-14T06:14:05.899Z,101045.47
2023-08-14T06:16:34.265Z,101045.69
2023-08-14T06:19:02.906Z,101044.81
2023-08-14T06:21:31.151Z,101049.34
2023-08-14T06:23:59.692Z,101047.88
2023-08-14T06:26:27.864Z,101050.22
2023-08-14T06:28:56.411Z,101053.16
2023-08-14T06:31:24.779Z,101043.88
2023-08-14T06:33:53.412Z,101049.78
2023-08-14T06:36:22.175Z,101043.41
2023-08-14T06:38:50.732Z,101048.69
2023-08-14T06:41:18.890Z,101051.84
2023-08-14T06:43:47.571Z,101050.53
2023-08-14T06:46:15.798Z,101050.28
2023-08-14T06:48:44.675Z,101056.19
2023-08-14T06:51:12.966Z,101051.78
2023-08-14T06:53:41.516Z,101060.50
2023-08-14T06:56:10.141Z,101054.34
2023-08-14T06:58:38.923Z,101058.88
2023-08-14T07:01:08.665Z,101063.69
2023-08-14T07:03:37.390Z,101062.38
2023-08-14T07:06:05.788Z,101066.31
2023-08-14T07:08:34.565Z,101074.25
2023-08-14T07:11:02.812Z,101071.72
2023-08-14T07:13:31.867Z,101066.03
2023-08-14T07:16:00.428Z,101075.63
2023-08-14T07:18:29.282Z,101079.91
2023-08-14T07:20:59.435Z,101076.75
2023-08-14T07:23:28.051Z,101081.00
2023-08-14T07:25:59.024Z,101080.03
2023-08-14T07:28:27.632Z,101076.84
2023-08-14T07:30:55.967Z,101081.75
2023-08-14T07:33:24.676Z,101085.31
2023-08-14T07:35:53.012Z,101078.41
2023-08-14T07:38:21.943Z,101085.41
2023-08-14T07:40:50.381Z,101086.91
2023-08-14T07:43:19.026Z,101082.97
2023-08-14T07:45:47.355Z,101087.66
2023-08-14T07:48:15.936Z,101088.13
2023-08-14T07:50:44.210Z,101085.41
2023-08-14T07:53:12.784Z,101085.06
2023-08-14T07:55:41.081Z,101083.19
2023-08-14T07:58:10.122Z,101075.59
2023-08-14T08:00:38.402Z,101085.19
2023-08-14T08:03:07.669Z,101088.59
2023-08-14T08:05:36.195Z,101096.25
2023-08-14T08:08:05.558Z,101091.81
2023-08-14T08:10:34.122Z,101091.09
2023-08-14T08:13:02.937Z,101093.03
2023-08-14T08:15:32.275Z,101091.44
2023-08-14T08:18:00.908Z,101081.50
2023-08-14T08:20:29.338Z,101085.41
2023-08-14T08:22:57.968Z,101088.97
2023-08-14T08:25:26.251Z,101088.75
2023-08-14T08:27:54.941Z,101087.97
2023-08-14T08:30:23.248Z,101082.91
2023-08-14T08:32:51.806Z,101085.38
2023-08-14T08:35:20.179Z,101089.00
2023-08-14T08:37:48.732Z,101089.00
2023-08-14T08:40:17.193Z,101094.41
2023-08-14T08:42:46.896Z,101092.69
2023-08-14T08:45:17.290Z,101095.53
2023-08-14T08:47:50.683Z,101098.38
2023-08-14T08:50:19.054Z,101089.13
2023-08-14T08:52:47.855Z,101096.13
2023-08-14T08:55:19.646Z,101093.19
2023-08-14T08:57:50.379Z,101093.56
2023-08-14T09:00:18.916Z,101097.25
2023-08-14T09:02:47.582Z,101097.38
2023-08-14T09:05:16.300Z,101095.03
2023-08-14T09:07:46.285Z,101091.91
2023-08-14T09:10:16.087Z,101092.31
2023-08-14T09:12:45.099Z,101080.84
2023-08-14T09:15:13.461Z,101078.72
2023-08-14T09:17:42.060Z,101082.81
2023-08-14T09:20:20.139Z,101079.84
2023-08-14T09:23:00.100Z,101084.22
2023-08-14T09:25:28.682Z,101082.69
2023-08-14T09:27:57.716Z,101081.41
2023-08-14T09:30:27.656Z,101085.22
2023-08-14T09:32:57.168Z,101085.53
2023-08-14T09:35:25.672Z,101079.84
2023-08-14T09:37:54.759Z,101083.53
2023-08-14T09:40:23.137Z,101082.81
2023-08-14T09:42:52.034Z,101076.81
2023-08-14T09:45:25.154Z,101074.84
2023-08-14T09:47:59.282Z,101071.41
2023-08-14T09:50:31.579Z,101073.38
2023-08-14T09:53:02.161Z,101066.47
2023-08-14T09:55:31.020Z,101067.66
2023-08-14T09:58:00.231Z,101069.78
2023-08-14T10:00:32.117Z,101064.38
2023-08-14T10:03:04.263Z,101064.66
2023-08-14T10:05:34.894Z,101061.50
2023-08-14T10:08:03.823Z,101064.31
2023-08-14T10:10:33.130Z,101070.75
2023-08-14T10:13:06.477Z,101060.59
2023-08-14T10:15:39.106Z,101060.75
2023-08-14T10:18:17.970Z,101056.56
2023-08-14T10:20:49.239Z,101044.16
2023-08-14T10:23:18.499Z,101048.78
2023-08-14T10:25:52.081Z,101043.25
2023-08-14T10:28:21.587Z,101045.13
2023-08-14T10:30:50.153Z,101043.09
2023-08-14T10:33:20.581Z,101044.97
2023-08-14T10:35:55.405Z,101045.41
2023-08-14T10:38:43.723Z,101031.41
2023-08-14T10:41:12.036Z,101030.22
2023-08-14T10:43:41.499Z,101033.38
2023-08-14T10:46:13.428Z,101036.75
2023-08-14T10:48:43.888Z,101033.22
2023-08-14T10:51:17.772Z,101026.06
2023-08-14T10:53:46.455Z,101034.75
2023-08-14T10:56:15.167Z,101032.72
2023-08-14T10:58:51.662Z,101032.53
2023-08-14T11:01:19.994Z,101027.75
2023-08-14T11:03:59.777Z,101027.50
2023-08-14T11:06:30.318Z,101023.91
2023-08-14T11:09:01.024Z,101024.63
2023-08-14T11:11:29.496Z,101022.19
2023-08-14T11:13:58.322Z,101025.50
2023-08-14T11:16:27.119Z,101022.38
2023-08-14T11:18:58.834Z,101011.38
2023-08-14T11:21:32.063Z,101012.38
2023-08-14T11:24:01.571Z,101010.38
2023-08-14T11:26:31.663Z,101010.97
2023-08-14T11:29:00.303Z,101009.13
2023-08-14T11:31:34.349Z,101002.00
2023-08-14T11:34:04.086Z,101003.72
2023-08-14T11:36:35.177Z,101009.84
2023-08-14T11:39:05.429Z,101011.88
2023-08-14T11:41:36.882Z,101010.53
2023-08-14T11:44:05.660Z,101005.53
2023-08-14T11:46:34.083Z,100998.97
2023-08-14T11:49:02.715Z,100998.56
2023-08-14T11:51:30.933Z,101001.84
2023-08-14T11:54:03.230Z,100993.84
2023-08-14T11:56:31.463Z,100996.00
2023-08-14T11:59:07.209Z,100994.88
2023-08-14T12:01:38.510Z,100990.28
2023-08-14T12:04:08.661Z,100998.16
2023-08-14T12:06:37.142Z,101001.44
2023-08-14T12:09:11.237Z,100991.72
2023-08-14T12:11:40.021Z,100997.31
2023-08-14T12:14:09.175Z,100997.72
2023-08-14T12:16:41.282Z,100996.00
2023-08-14T12:19:11.181Z,100989.75
2023-08-14T12:21:39.891Z,100986.59
2023-08-14T12:24:08.597Z,100995.88
2023-08-14T12:26:42.229Z,100986.16
2023-08-14T12:29:11.364Z,100988.72
2023-08-14T12:31:39.883Z,100985.59
2023-08-14T12:34:08.584Z,100986.56
2023-08-14T12:36:37.171Z,100983.00
2023-08-14T12:39:05.985Z,100981.28
2023-08-14T12:41:34.331Z,100977.59
2023-08-14T12:44:03.155Z,100984.03
2023-08-14T12:46:31.478Z,100977.84
2023-08-14T12:49:00.112Z,100963.69
2023-08-14T12:51:28.375Z,100968.41
2023-08-14T12:53:57.006Z,100954.72
2023-08-14T12:56:25.352Z,100948.75
2023-08-14T12:58:56.003Z,100949.50
2023-08-14T13:01:25.185Z,100944.13
2023-08-14T13:03:55.275Z,100940.69
2023-08-14T13:06:25.252Z,100943.78
2023-08-14T13:08:53.946Z,100933.94
2023-08-14T13:11:22.346Z,100929.25
2023-08-14T13:13:51.341Z,100930.94
2023-08-14T13:16:20.003Z,100934.13
2023-08-14T13:18:48.737Z,100928.97
2023-08-14T13:21:17.026Z,100930.25
2023-08-14T13:23:45.884Z,100921.56
2023-08-14T13:26:26.569Z,100922.09
2023-08-14T13:28:56.616Z,100914.94
2023-08-14T13:31:25.086Z,100911.53
2023-08-14T13:33:53.714Z,100917.41
2023-08-14T13:36:22.032Z,100903.84
2023-08-14T13:38:50.662Z,100907.50
2023-08-14T13:41:19.008Z,100905.22
2023-08-14T13:43:48.091Z,100903.38
2023-08-14T13:46:16.407Z,100903.47
2023-08-14T13:48:45.645Z,100904.59
2023-08-14T13:51:15.207Z,100909.31
2023-08-14T13:53:44.156Z,100907.91
2023-08-14T13:56:12.422Z,100909.03
2023-08-14T13:58:40.971Z,100916.34
2023-08-14T14:01:09.337Z,100906.19
2023-08-14T14:03:40.184Z,100917.38
2023-08-14T14:06:11.105Z,100923.41
2023-08-14T14:08:39.755Z,100915.38
2023-08-14T14:11:07.985Z,100912.34
2023-08-14T14:13:36.744Z,100916.88
2023-08-14T14:16:05.298Z,100918.31
2023-08-14T14:18:33.960Z,100910.16
2023-08-14T14:21:02.215Z,100915.09
2023-08-14T14:23:30.884Z,100922.50
2023-08-14T14:25:59.113Z,100924.03
2023-08-14T14:28:30.236Z,100916.38
2023-08-14T14:30:59.007Z,100913.34
2023-08-14T14:33:27.670Z,100921.03
2023-08-14T14:35:56.029Z,100921.84
2023-08-14T14:38:24.693Z,100921.44
2023-08-14T14:40:52.863Z,100921.66
2023-08-14T14:43:21.404Z,100924.38
2023-08-14T14:45:49.693Z,100916.78
2023-08-14T14:48:18.257Z,100915.94
2023-08-14T14:50:56.022Z,100912.22
2023-08-14T14:53:24.532Z,100922.22
2023-08-14T14:55:52.724Z,100914.34
2023-08-14T14:58:40.864Z,100916.00
2023-08-14T15:01:09.373Z,100920.72
2023-08-14T15:03:38.325Z,100917.72
2023-08-14T15:06:06.875Z,100921.28
2023-08-14T15:08:35.416Z,100917.06
2023-08-14T15:11:03.711Z,100919.50
2023-08-14T15:13:32.285Z,100926.44
2023-08-14T15:16:01.010Z,100927.31
2023-08-14T15:18:30.198Z,100921.59
2023-08-14T15:20:58.363Z,100922.22
2023-08-14T15:23:26.970Z,100927.03
2023-08-14T15:25:55.255Z,100931.66
2023-08-14T15:28:23.964Z,100916.94
2023-08-14T15:30:52.109Z,100921.75
2023-08-14T15:33:22.000Z,100926.72
2023-08-14T15:35:50.197Z,100923.59
2023-08-14T15:38:18.707Z,100925.22
2023-08-14T15:40:48.237Z,100923.72
2023-08-14T15:43:17.075Z,100917.88
2023-08-14T15:45:45.330Z,100915.56
2023-08-14T15:48:14.016Z,100918.31
2023-08-14T15:50:43.670Z,100919.66
2023-08-14T15:53:12.167Z,100915.59
2023-08-14T15:55:40.570Z,100915.84
2023-08-14T15:58:08.999Z,100915.56
2023-08-14T16:00:37.209Z,100919.13
2023-08-14T16:03:07.781Z,100910.16
2023-08-14T16:05:36.249Z,100907.91
2023-08-14T16:08:05.207Z,100910.78
2023-08-14T16:10:33.753Z,100909.22
2023-08-14T16:13:02.331Z,100909.38
2023-08-14T16:15:30.562Z,100909.53
2023-08-14T16:17:59.080Z,100909.94
2023-08-14T16:20:27.271Z,100910.94
2023-08-14T16:22:55.914Z,100907.09
2023-08-14T16:25:24.200Z,100904.69
2023-08-14T16:27:52.729Z,100903.38
2023-08-14T16:30:20.920Z,100903.00
2023-08-14T16:32:49.575Z,100900.97
2023-08-14T16:35:17.794Z,100896.16
2023-08-14T16:37:46.348Z,100893.44
2023-08-14T16:40:14.626Z,100890.16
2023-08-14T16:42:43.137Z,100891.59
2023-08-14T16:45:13.581Z,100887.16
2023-08-14T16:47:43.059Z,100889.03
2023-08-14T16:50:11.926Z,100891.22
2023-08-14T16:52:40.423Z,100883.75
2023-08-14T16:55:09.005Z,100893.22
2023-08-14T16:57:37.861Z,100881.75
2023-08-14T17:00:07.076Z,100882.94
2023-08-14T17:02:37.793Z,100884.06
2023-08-14T17:05:08.731Z,100881.50
2023-08-14T17:07:37.415Z,100879.78
2023-08-14T17:10:05.682Z,100872.34
2023-08-14T17:12:34.234Z,100878.94
2023-08-14T17:15:02.413Z,100871.50
2023-08-14T17:17:32.698Z,100877.78
2023-08-14T17:20:01.032Z,100869.19
2023-08-14T17:22:29.659Z,100870.06
2023-08-14T17:24:57.907Z,100875.06
2023-08-14T17:27:45.279Z,100873.50
2023-08-14T17:30:13.931Z,100872.63
2023-08-14T17:32:42.534Z,100882.13
2023-08-14T17:35:10.908Z,100869.94
2023-08-14T17:37:39.469Z,100874.34
2023-08-14T17:40:08.421Z,100866.63
2023-08-14T17:42:36.936Z,100873.06
2023-08-14T17:45:05.548Z,100866.22
2023-08-14T17:47:35.466Z,100870.63
2023-08-14T17:50:03.907Z,100867.53
2023-08-14T17:52:33.748Z,100863.09
2023-08-14T17:55:02.420Z,100863.69
2023-08-14T17:57:31.332Z,100854.69
2023-08-14T17:59:59.499Z,100863.13
2023-08-14T18:02:28.229Z,100859.25
2023-08-14T18:04:56.506Z,100867.00
2023-08-14T18:07:25.188Z,100866.69
2023-08-14T18:09:56.012Z,100870.41
2023-08-14T18:12:24.880Z,100875.84
2023-08-14T18:14:53.134Z,100884.28
2023-08-14T18:17:22.007Z,100881.88
2023-08-14T18:19:50.438Z,100883.28
2023-08-14T18:22:19.236Z,100881.41
2023-08-14T18:24:48.829Z,100887.00
2023-08-14T18:27:17.722Z,100895.84
2023-08-14T18:29:47.331Z,100896.13
2023-08-14T18:32:15.934Z,100899.88
2023-08-14T18:34:44.468Z,100907.00
2023-08-14T18:37:13.009Z,100911.56
2023-08-14T18:39:41.232Z,100912.41
2023-08-14T18:42:09.750Z,100925.00
2023-08-14T18:44:37.940Z,100928.69
2023-08-14T18:47:06.939Z,100928.69
2023-08-14T18:49:35.291Z,100936.00
2023-08-14T18:52:03.926Z,100943.31
2023-08-14T18:54:32.192Z,100947.03
2023-08-14T18:57:00.660Z,100956.16
2023-08-14T18:59:30.467Z,100958.16
2023-08-14T19:01:59.110Z,100968.16
2023-08-14T19:04:40.643Z,100973.72
2023-08-14T19:07:10.842Z,100988.00
2023-08-14T19:09:39.236Z,100985.59
2023-08-14T19:12:08.588Z,100993.00
2023-08-14T19:14:37.382Z,101003.72
2023-08-14T19:17:06.080Z,101004.44
2023-08-14T19:19:34.404Z,101011.28
2023-08-14T19:22:03.042Z,101008.72
2023-08-14T19:24:31.266Z,101021.16
2023-08-14T19:26:59.775Z,101019.16
2023-08-14T19:29:27.992Z,101019.31
2023-08-14T19:31:56.515Z,101020.13
2023-08-14T19:34:24.663Z,101015.03
2023-08-14T19:36:53.299Z,101015.31
2023-08-14T19:39:21.492Z,101017.28
2023-08-14T19:41:51.032Z,101020.59
2023-08-14T19:44:19.262Z,101021.44
2023-08-14T19:46:48.040Z,101028.44
2023-08-14T19:49:16.212Z,101032.03
2023-08-14T19:51:44.641Z,101035.59
2023-08-14T19:54:12.849Z,101029.31
2023-08-14T19:56:41.354Z,101040.03
2023-08-14T19:59:09.764Z,101035.59
2023-08-14T20:01:38.353Z,101030.16
2023-08-14T20:04:07.145Z,101038.00
2023-08-14T20:06:35.871Z,101037.88
2023-08-14T20:09:04.410Z,101044.28
2023-08-14T20:11:32.942Z,101037.16
2023-08-14T20:14:01.052Z,101040.09
2023-08-14T20:16:29.516Z,101040.97
2023-08-14T20:18:57.866Z,101042.09
2023-08-14T20:21:26.479Z,101046.97
2023-08-14T20:23:54.628Z,101051.22
2023-08-14T20:26:24.476Z,101058.09
2023-08-14T20:28:52.608Z,101052.38
2023-08-14T20:31:21.997Z,101049.66
2023-08-14T20:33:50.924Z,101049.78
2023-08-14T20:36:23.025Z,101058.34
2023-08-14T20:38:51.236Z,101060.06
2023-08-14T20:41:20.027Z,101055.09
2023-08-14T20:43:48.220Z,101056.66
2023-08-14T20:46:17.151Z,101052.50
2023-08-14T20:48:45.355Z,101058.94
2023-08-14T20:51:13.855Z,101051.66
2023-08-14T20:53:42.047Z,101051.50
2023-08-14T20:56:10.507Z,101058.66
2023-08-14T20:58:38.720Z,101050.94
2023-08-14T21:01:07.197Z,101058.47
2023-08-14T21:03:35.446Z,101057.75
2023-08-14T21:06:04.199Z,101057.88
2023-08-14T21:08:32.431Z,101056.03
2023-08-14T21:11:01.026Z,101057.63
2023-08-14T21:13:30.593Z,101058.75
2023-08-14T21:15:59.910Z,101064.16
2023-08-14T21:18:28.211Z,101065.75
2023-08-14T21:20:56.673Z,101068.59
2023-08-14T21:23:25.765Z,101065.16
2023-08-14T21:25:54.242Z,101070.03
2023-08-14T21:28:22.618Z,101066.88
2023-08-14T21:31:00.893Z,101064.16
2023-08-14T21:33:29.207Z,101065.16
2023-08-14T21:36:00.074Z,101062.75
2023-08-14T21:38:28.347Z,101069.84
2023-08-14T21:40:56.944Z,101059.72
2023-08-14T21:43:26.008Z,101068.53
2023-08-14T21:45:54.483Z,101076.28
2023-08-14T21:48:22.630Z,101070.00
2023-08-14T21:50:51.150Z,101067.69
2023-08-14T21:53:20.132Z,101071.13
2023-08-14T21:55:48.638Z,101063.84
2023-08-14T21:58:18.098Z,101072.50
2023-08-14T22:00:47.193Z,101071.94
2023-08-14T22:03:15.633Z,101067.09
2023-08-14T22:05:44.460Z,101063.13
2023-08-14T22:08:15.358Z,101069.88
2023-08-14T22:10:44.095Z,101072.78
2023-08-14T22:13:12.489Z,101073.59
2023-08-14T22:15:46.349Z,101069.88
2023-08-14T22:18:16.132Z,101071.34
2023-08-14T22:20:45.029Z,101072.47
2023-08-14T22:23:15.141Z,101066.44
2023-08-14T22:25:44.644Z,101063.47
2023-08-14T22:28:12.924Z,101071.34
2023-08-14T22:30:44.074Z,101069.34
2023-08-14T22:33:13.827Z,101071.59
2023-08-14T22:35:42.356Z,101067.56
2023-08-14T22:38:10.528Z,101068.03
2023-08-14T22:40:39.076Z,101063.94
2023-08-14T22:43:07.181Z,101065.59
2023-08-14T22:48:08.852Z,101059.31
2023-08-14T22:50:37.751Z,101059.63
2023-08-14T22:53:05.939Z,101055.31
2023-08-14T22:55:34.448Z,101057.91
2023-08-14T22:58:03.184Z,101054.47
2023-08-14T23:00:33.710Z,101052.75
2023-08-14T23:03:02.088Z,101058.75
2023-08-14T23:05:30.848Z,101049.47
2023-08-14T23:07:58.988Z,101058.03
2023-08-14T23:10:27.453Z,101059.63
2023-08-14T23:12:55.635Z,101048.06
2023-08-14T23:15:24.212Z,101057.53
2023-08-14T23:17:52.597Z,101055.16
2023-08-14T23:20:21.286Z,101062.28
2023-08-14T23:22:49.475Z,101054.22
2023-08-14T23:25:19.084Z,101061.16
2023-08-14T23:27:47.337Z,101061.88
2023-08-14T23:30:16.080Z,101062.03
2023-08-14T23:32:44.302Z,101054.91
2023-08-14T23:35:13.127Z,101056.69
2023-08-14T23:37:41.305Z,101055.81
2023-08-14T23:40:10.586Z,101066.34
2023-08-14T23:42:39.766Z,101053.13
2023-08-14T23:45:08.489Z,101052.31
2023-08-14T23:47:36.789Z,101055.34
2023-08-14T23:50:05.698Z,101046.91
2023-08-14T23:52:34.015Z,101041.94
2023-08-14T23:55:02.531Z,101049.94
2023-08-14T23:57:30.717Z,101042.69
2023-08-14T23:59:59.267Z,101040.09
